Time;durP1;ratioP1;P1;durP2;ratioP2;P2;SDS_P1;SDS_P2;PMS_P1;PMS_P2;Temp;Humidity;BMP_temperature;BMP_pressure;BME280_temperature;BME280_humidity;BME280_pressure;Samples;Min_cycle;Max_cycle;Signal;HPM_P1;HPM_P2
2023/11/14 00:00:50;;;;;;;1.60;1.07;;;11.60;98.20;;;;;;4961559;28;20470;-86
2023/11/14 00:03:17;;;;;;;1.60;1.10;;;11.60;98.20;;;;;;4986641;28;20470;-85
2023/11/14 00:05:46;;;;;;;1.60;1.10;;;11.60;98.20;;;;;;4969449;28;20550;-85
2023/11/14 00:08:14;;;;;;;1.60;1.10;;;11.60;98.20;;;;;;4941685;28;20526;-88
2023/11/14 00:10:40;;;;;;;1.60;1.10;;;11.60;98.20;;;;;;4953249;28;20474;-87
2023/11/14 00:13:07;;;;;;;1.60;1.10;;;11.60;98.20;;;;;;4957342;28;21102;-86
2023/11/14 00:15:34;;;;;;;1.60;1.00;;;11.60;98.20;;;;;;4951777;28;20535;-86
2023/11/14 00:18:03;;;;;;;1.67;1.20;;;11.60;98.20;;;;;;4958530;28;21092;-84
2023/11/14 00:20:29;;;;;;;1.60;1.10;;;11.60;98.20;;;;;;4956155;28;20507;-85
2023/11/14 00:22:57;;;;;;;1.60;1.10;;;11.60;98.20;;;;;;4957532;28;20536;-85
2023/11/14 00:25:23;;;;;;;1.60;1.10;;;11.60;98.20;;;;;;4953567;28;21068;-86
2023/11/14 00:27:50;;;;;;;1.60;1.10;;;11.60;98.20;;;;;;4959208;28;20516;-84
2023/11/14 00:30:17;;;;;;;1.60;1.10;;;11.60;98.20;;;;;;4952836;28;20908;-85
2023/11/14 00:32:44;;;;;;;1.60;1.20;;;11.60;98.20;;;;;;4961876;28;20473;-87
2023/11/14 00:35:13;;;;;;;1.60;1.10;;;11.60;98.20;;;;;;4951346;28;20462;-86
2023/11/14 00:37:39;;;;;;;1.60;1.20;;;11.60;98.20;;;;;;4954908;28;20496;-84
2023/11/14 00:40:09;;;;;;;1.60;1.10;;;11.60;98.20;;;;;;4956866;28;20458;-84
2023/11/14 00:42:36;;;;;;;1.60;1.10;;;11.60;98.20;;;;;;4955511;28;20606;-85
2023/11/14 00:45:03;;;;;;;1.60;1.10;;;11.60;98.20;;;;;;4953267;28;20494;-84
2023/11/14 00:47:30;;;;;;;1.60;1.10;;;11.60;98.20;;;;;;4954084;28;20965;-84
2023/11/14 00:49:56;;;;;;;1.60;1.10;;;11.60;98.20;;;;;;4953923;28;20474;-82
2023/11/14 00:52:25;;;;;;;1.60;1.20;;;11.60;98.20;;;;;;4954744;28;20493;-83
2023/11/14 00:54:51;;;;;;;1.60;1.00;;;11.60;98.20;;;;;;4955495;28;20473;-85
2023/11/14 00:57:18;;;;;;;1.60;1.10;;;11.60;98.20;;;;;;4953307;28;20494;-88
2023/11/14 00:59:46;;;;;;;1.60;1.17;;;11.60;98.20;;;;;;4955926;28;20467;-84
2023/11/14 01:02:13;;;;;;;3.63;3.33;;;11.60;98.20;;;;;;4952407;28;20514;-83
2023/11/14 01:04:40;;;;;;;1.60;1.10;;;11.60;98.20;;;;;;4957451;28;20463;-85
2023/11/14 01:07:09;;;;;;;1.60;1.10;;;11.60;98.20;;;;;;4953075;28;20835;-84
2023/11/14 01:09:37;;;;;;;1.60;1.10;;;11.60;98.20;;;;;;4956468;28;20546;-84
2023/11/14 01:12:05;;;;;;;1.60;1.13;;;11.60;98.20;;;;;;4951710;28;20486;-84
2023/11/14 01:14:32;;;;;;;1.60;1.03;;;11.60;98.20;;;;;;4956013;28;20479;-85
2023/11/14 01:16:59;;;;;;;1.60;1.20;;;11.60;98.20;;;;;;4951504;28;20961;-84
2023/11/14 01:19:25;;;;;;;1.60;1.10;;;11.60;98.20;;;;;;4959463;28;20483;-85
2023/11/14 01:21:53;;;;;;;1.60;1.20;;;11.60;98.20;;;;;;4951120;28;20630;-83
2023/11/14 01:24:20;;;;;;;1.60;1.20;;;11.60;98.20;;;;;;4959314;28;20466;-84
2023/11/14 01:26:48;;;;;;;1.60;1.10;;;11.60;98.20;;;;;;4950940;28;20482;-84
2023/11/14 01:29:15;;;;;;;1.60;1.13;;;11.60;98.20;;;;;;4963850;28;20469;-86
2023/11/14 01:31:42;;;;;;;1.60;1.20;;;11.60;98.20;;;;;;4953275;28;20489;-84
2023/11/14 01:34:09;;;;;;;1.60;1.10;;;11.60;98.20;;;;;;4966151;28;20501;-83
2023/11/14 01:36:37;;;;;;;1.60;1.10;;;11.50;98.20;;;;;;4953358;28;20488;-85
2023/11/14 01:39:04;;;;;;;1.60;1.10;;;11.50;98.20;;;;;;4966700;28;20553;-83
2023/11/14 01:41:31;;;;;;;1.60;1.10;;;11.50;98.20;;;;;;4947555;28;20550;-83
2023/11/14 01:43:59;;;;;;;1.60;1.10;;;11.50;98.20;;;;;;4965152;28;20534;-82
2023/11/14 01:46:27;;;;;;;1.57;1.10;;;11.50;98.20;;;;;;4947253;28;20473;-83
2023/11/14 01:48:54;;;;;;;1.60;1.07;;;11.50;98.20;;;;;;4965684;28;20493;-82
2023/11/14 01:51:24;;;;;;;1.60;1.00;;;11.50;98.20;;;;;;4946616;28;20575;-84
2023/11/14 01:53:54;;;;;;;1.60;1.20;;;11.50;98.20;;;;;;4962871;28;20466;-82
2023/11/14 01:56:21;;;;;;;1.60;1.10;;;11.50;98.20;;;;;;4946941;28;20533;-83
2023/11/14 01:58:51;;;;;;;1.60;1.10;;;11.50;98.20;;;;;;4963638;28;20491;-81
2023/11/14 02:01:19;;;;;;;1.60;1.10;;;11.50;98.20;;;;;;4945629;28;20469;-84
2023/11/14 02:03:46;;;;;;;1.60;1.20;;;11.50;98.20;;;;;;4963158;28;20471;-83
2023/11/14 02:06:13;;;;;;;1.60;1.10;;;11.40;98.20;;;;;;4946972;28;20477;-88
2023/11/14 02:08:40;;;;;;;1.60;1.00;;;11.50;98.20;;;;;;4964171;28;20514;-83
2023/11/14 02:11:07;;;;;;;1.60;1.10;;;11.40;98.20;;;;;;4946296;28;20470;-81
2023/11/14 02:13:34;;;;;;;1.60;1.10;;;11.40;98.20;;;;;;4959892;28;20542;-84
2023/11/14 02:16:01;;;;;;;2.27;1.70;;;11.40;98.20;;;;;;4945494;28;20474;-82
2023/11/14 02:18:29;;;;;;;1.60;1.00;;;11.40;98.20;;;;;;4965683;28;20569;-84
2023/11/14 02:20:56;;;;;;;1.60;1.10;;;11.50;98.20;;;;;;4943965;28;20459;-84
2023/11/14 02:23:26;;;;;;;1.60;1.10;;;11.50;98.20;;;;;;4968471;28;20463;-83
2023/11/14 02:25:54;;;;;;;1.60;1.10;;;11.50;98.20;;;;;;4948232;28;20462;-83
2023/11/14 02:28:21;;;;;;;1.60;1.10;;;11.50;98.20;;;;;;4963698;28;20492;-83
2023/11/14 02:30:48;;;;;;;1.60;1.10;;;11.50;98.20;;;;;;4948625;28;20661;-83
2023/11/14 02:33:15;;;;;;;1.60;1.10;;;11.50;98.20;;;;;;4965585;28;20982;-84
2023/11/14 02:35:42;;;;;;;1.60;1.30;;;11.50;98.20;;;;;;4958515;28;20470;-83
2023/11/14 02:38:09;;;;;;;1.60;1.10;;;11.40;98.20;;;;;;4957670;28;20482;-84
2023/11/14 02:40:37;;;;;;;1.60;1.13;;;11.40;98.20;;;;;;4953737;28;20474;-83
2023/11/14 02:43:05;;;;;;;1.60;1.10;;;11.40;98.20;;;;;;4955407;28;21036;-85
2023/11/14 02:45:31;;;;;;;1.60;1.10;;;11.40;98.20;;;;;;4953318;28;20463;-85
2023/11/14 02:47:58;;;;;;;1.60;1.20;;;11.40;98.20;;;;;;4959014;28;20478;-83
2023/11/14 02:50:42;;;;;;;1.70;1.13;;;11.40;98.20;;;;;;4953473;28;20462;-84
2023/11/14 02:53:09;;;;;;;1.60;1.10;;;11.40;98.20;;;;;;4956980;28;20486;-83
2023/11/14 02:55:35;;;;;;;1.60;1.10;;;11.40;98.20;;;;;;4954431;28;20466;-83
2023/11/14 02:58:03;;;;;;;1.60;1.30;;;11.40;98.20;;;;;;4958173;28;20478;-85
2023/11/14 03:00:31;;;;;;;1.60;1.10;;;11.40;98.20;;;;;;4953917;28;20466;-83
2023/11/14 03:02:58;;;;;;;1.60;1.20;;;11.40;98.20;;;;;;4956778;28;20490;-84
2023/11/14 03:05:24;;;;;;;1.60;1.10;;;11.40;98.20;;;;;;4952064;28;20459;-83
2023/11/14 03:07:51;;;;;;;1.60;1.10;;;11.40;98.20;;;;;;4958114;28;20486;-83
2023/11/14 03:10:21;;;;;;;1.60;1.10;;;11.40;98.20;;;;;;4952517;28;20474;-85
2023/11/14 03:12:48;;;;;;;1.60;1.10;;;11.40;98.20;;;;;;4955955;28;20489;-83
2023/11/14 03:15:15;;;;;;;1.60;1.10;;;11.40;98.20;;;;;;4961235;28;20533;-87
2023/11/14 03:17:43;;;;;;;1.60;1.20;;;11.40;98.20;;;;;;4956972;28;20491;-84
2023/11/14 03:20:12;;;;;;;1.60;1.17;;;11.40;98.20;;;;;;4954479;28;20534;-84
2023/11/14 03:22:39;;;;;;;1.60;1.10;;;11.40;98.20;;;;;;4954661;28;20537;-82
2023/11/14 03:25:06;;;;;;;1.60;1.10;;;11.40;98.20;;;;;;4955260;28;20469;-82
2023/11/14 03:27:33;;;;;;;1.60;1.13;;;11.40;98.20;;;;;;4953819;28;20482;-85
2023/11/14 03:30:01;;;;;;;1.60;1.20;;;11.40;98.20;;;;;;4956560;28;20463;-83
2023/11/14 03:32:30;;;;;;;1.60;1.10;;;11.40;98.20;;;;;;4955613;28;20485;-83
2023/11/14 03:34:59;;;;;;;1.60;1.07;;;11.40;98.20;;;;;;4951654;28;20462;-81
2023/11/14 03:37:26;;;;;;;1.60;1.20;;;11.40;98.20;;;;;;4954676;28;20617;-81
2023/11/14 03:39:52;;;;;;;1.60;1.10;;;11.40;98.20;;;;;;4956469;28;20550;-84
2023/11/14 03:42:19;;;;;;;1.60;1.10;;;11.40;98.20;;;;;;4953950;28;20572;-83
2023/11/14 03:44:46;;;;;;;1.60;1.00;;;11.40;98.20;;;;;;4957795;28;20549;-84
2023/11/14 03:47:13;;;;;;;1.60;1.10;;;11.40;98.20;;;;;;4955166;28;20470;-84
2023/11/14 03:49:40;;;;;;;1.60;1.10;;;11.40;98.20;;;;;;4956476;28;20945;-84
2023/11/14 03:52:10;;;;;;;1.60;1.10;;;11.40;98.20;;;;;;4954304;28;20509;-85
2023/11/14 03:54:37;;;;;;;1.60;1.20;;;11.40;98.20;;;;;;4957076;28;20471;-87
2023/11/14 03:57:05;;;;;;;1.60;1.20;;;11.40;98.20;;;;;;4953709;28;20478;-85
2023/11/14 03:59:32;;;;;;;1.60;1.20;;;11.40;98.20;;;;;;4959356;28;20467;-85
2023/11/14 04:01:59;;;;;;;1.60;1.10;;;11.40;98.20;;;;;;4956284;28;20573;-84
2023/11/14 04:04:25;;;;;;;1.60;1.10;;;11.40;98.20;;;;;;4959000;28;20502;-85
2023/11/14 04:06:52;;;;;;;1.60;1.10;;;11.40;98.20;;;;;;4956343;28;20512;-84
2023/11/14 04:09:20;;;;;;;1.60;1.10;;;11.40;98.20;;;;;;4961749;28;20474;-84
2023/11/14 04:11:55;;;;;;;1.60;1.20;;;11.40;98.20;;;;;;5077798;28;20561;-86
2023/11/14 04:14:22;;;;;;;1.60;1.20;;;11.40;98.20;;;;;;5048018;28;20554;-85
2023/11/14 04:16:49;;;;;;;1.60;1.10;;;11.40;98.20;;;;;;5047016;28;20567;-85
2023/11/14 04:19:16;;;;;;;1.60;1.03;;;11.40;98.20;;;;;;5037625;28;20471;-83
2023/11/14 04:21:43;;;;;;;1.60;1.10;;;11.40;98.20;;;;;;5021553;28;20467;-85
2023/11/14 04:24:14;;;;;;;1.60;1.10;;;11.40;98.20;;;;;;5018961;28;20461;-85
2023/11/14 04:26:42;;;;;;;1.60;1.10;;;11.50;98.20;;;;;;5019953;28;20509;-83
2023/11/14 04:29:11;;;;;;;1.60;1.03;;;11.50;98.20;;;;;;5026662;28;20487;-84
2023/11/14 04:31:37;;;;;;;1.60;1.10;;;11.50;98.20;;;;;;5010106;28;21130;-84
2023/11/14 04:34:06;;;;;;;1.70;1.53;;;11.50;98.20;;;;;;5026639;28;20540;-84
2023/11/14 04:36:34;;;;;;;1.60;1.10;;;11.50;98.20;;;;;;5018468;28;20476;-85
2023/11/14 04:39:01;;;;;;;1.60;1.07;;;11.50;98.20;;;;;;5031709;28;20514;-83
2023/11/14 04:41:28;;;;;;;1.60;1.20;;;11.60;98.20;;;;;;5019313;28;20584;-85
2023/11/14 04:43:55;;;;;;;1.60;1.10;;;11.60;98.20;;;;;;5032119;28;20474;-85
2023/11/14 04:46:23;;;;;;;1.60;1.10;;;11.60;98.20;;;;;;5020442;28;20487;-83
2023/11/14 04:48:50;;;;;;;1.60;1.10;;;11.70;98.20;;;;;;5040939;28;20520;-85
2023/11/14 04:51:19;;;;;;;1.60;1.10;;;11.70;98.20;;;;;;5018538;28;20466;-83
2023/11/14 04:53:45;;;;;;;1.60;1.10;;;11.70;98.20;;;;;;5035529;28;20467;-83
2023/11/14 04:56:14;;;;;;;1.60;1.10;;;11.80;98.20;;;;;;5016517;28;20482;-84
2023/11/14 04:58:41;;;;;;;1.60;1.20;;;11.80;98.20;;;;;;5039130;28;20486;-84
2023/11/14 05:01:10;;;;;;;1.60;1.10;;;11.80;98.20;;;;;;5007871;28;20478;-84
2023/11/14 05:03:38;;;;;;;1.60;1.20;;;11.80;98.20;;;;;;5040552;28;20459;-84
2023/11/14 05:06:05;;;;;;;1.60;1.10;;;11.80;98.20;;;;;;5015662;28;20552;-82
2023/11/14 05:08:32;;;;;;;1.60;1.10;;;11.80;98.20;;;;;;5040771;28;20494;-85
2023/11/14 05:10:59;;;;;;;1.60;1.10;;;11.80;98.20;;;;;;5019209;28;20570;-82
2023/11/14 05:13:26;;;;;;;1.60;1.10;;;11.80;98.20;;;;;;5043140;28;20922;-84
2023/11/14 05:15:53;;;;;;;1.60;1.10;;;11.80;98.20;;;;;;5026077;28;20535;-85
2023/11/14 05:18:21;;;;;;;1.53;1.00;;;11.80;98.20;;;;;;5053357;28;20566;-84
2023/11/14 05:20:49;;;;;;;3.00;2.80;;;11.80;98.20;;;;;;5021397;28;20456;-86
2023/11/14 05:23:17;;;;;;;1.60;1.10;;;11.80;98.20;;;;;;5045370;28;20476;-84
2023/11/14 05:25:44;;;;;;;1.70;1.50;;;11.80;98.20;;;;;;5024844;28;20459;-84
2023/11/14 05:28:10;;;;;;;1.60;1.00;;;11.80;98.20;;;;;;5025317;28;20494;-84
2023/11/14 05:30:38;;;;;;;1.60;1.00;;;11.80;98.20;;;;;;5022018;28;20851;-84
2023/11/14 05:33:04;;;;;;;1.60;1.10;;;11.80;98.20;;;;;;5032850;28;20472;-83
2023/11/14 05:35:31;;;;;;;1.70;1.50;;;11.80;98.20;;;;;;5017310;28;20543;-84
2023/11/14 05:38:02;;;;;;;1.60;1.10;;;11.80;98.20;;;;;;5027621;28;20541;-85
2023/11/14 05:40:29;;;;;;;1.60;1.40;;;11.80;98.20;;;;;;5018911;28;20518;-84
2023/11/14 05:42:56;;;;;;;1.60;1.10;;;11.80;98.20;;;;;;5018849;28;20570;-84
2023/11/14 05:45:30;;;;;;;1.60;1.20;;;11.80;98.20;;;;;;5022898;28;20470;-85
2023/11/14 05:47:57;;;;;;;1.60;1.10;;;11.80;98.20;;;;;;5040019;28;20498;-85
2023/11/14 05:50:24;;;;;;;1.60;1.10;;;11.80;98.20;;;;;;5020471;28;20494;-85
2023/11/14 05:53:07;;;;;;;1.60;1.10;;;11.80;98.20;;;;;;5009582;28;20499;-86
2023/11/14 05:55:34;;;;;;;1.57;1.03;;;11.80;98.20;;;;;;5006710;28;20483;-84
2023/11/14 05:58:04;;;;;;;1.60;1.10;;;11.90;98.20;;;;;;5019572;28;20517;-85
2023/11/14 06:00:45;;;;;;;1.60;1.10;;;11.90;98.20;;;;;;5014650;28;20757;-84
2023/11/14 06:03:25;;;;;;;1.60;1.10;;;11.90;98.20;;;;;;5006818;28;20491;-84
2023/11/14 06:06:05;;;;;;;1.60;1.10;;;11.90;98.20;;;;;;5017649;28;20546;-84
2023/11/14 06:12:18;;;;;;;1.60;1.10;;;12.00;98.20;;;;;;4981195;28;20473;-84
2023/11/14 06:15:13;;;;;;;1.60;1.00;;;12.00;98.20;;;;;;4955685;28;20616;-85
2023/11/14 06:17:42;;;;;;;2.70;2.50;;;12.00;98.20;;;;;;4968537;28;20575;-85
2023/11/14 06:20:10;;;;;;;1.53;1.00;;;12.00;98.20;;;;;;5017544;28;20464;-84
2023/11/14 06:22:37;;;;;;;1.60;1.20;;;12.00;98.20;;;;;;5019161;28;20483;-83
2023/11/14 06:25:05;;;;;;;1.60;1.03;;;12.00;98.20;;;;;;5013201;28;21073;-84
2023/11/14 06:27:32;;;;;;;1.60;1.10;;;12.00;98.20;;;;;;5029883;28;20512;-84
2023/11/14 06:30:01;;;;;;;1.60;1.20;;;12.00;98.20;;;;;;5016982;28;20502;-83
2023/11/14 06:32:28;;;;;;;1.60;1.07;;;12.00;98.20;;;;;;5013165;28;21270;-82
2023/11/14 06:34:59;;;;;;;1.57;1.00;;;12.00;98.20;;;;;;5014520;28;20469;-83
2023/11/14 06:37:26;;;;;;;1.70;1.50;;;12.00;98.20;;;;;;5016111;28;20982;-84
2023/11/14 06:39:56;;;;;;;1.60;1.10;;;11.90;98.20;;;;;;5016988;28;20503;-85
2023/11/14 06:42:23;;;;;;;1.60;1.10;;;11.90;98.20;;;;;;5029596;28;21028;-83
2023/11/14 06:45:02;;;;;;;1.60;1.10;;;11.90;98.20;;;;;;5023495;28;20500;-84
2023/11/14 06:47:31;;;;;;;1.60;1.10;;;11.90;98.20;;;;;;5029643;28;20477;-84
2023/11/14 06:49:59;;;;;;;1.60;1.10;;;11.90;98.20;;;;;;5018380;28;20471;-83
2023/11/14 06:53:03;;;;;;;1.60;1.07;;;11.90;98.20;;;;;;5015320;28;20506;-85
2023/11/14 06:55:43;;;;;;;1.60;1.00;;;11.90;98.20;;;;;;5012936;28;20484;-85
2023/11/14 06:58:10;;;;;;;1.60;1.10;;;11.90;98.20;;;;;;5035467;28;20924;-85
2023/11/14 07:00:42;;;;;;;1.60;1.20;;;11.80;98.20;;;;;;5014063;28;20483;-84
2023/11/14 07:03:10;;;;;;;1.57;1.00;;;11.80;98.20;;;;;;5031573;28;20860;-82
2023/11/14 07:05:38;;;;;;;1.60;1.10;;;11.80;98.20;;;;;;5009813;28;20700;-82
2023/11/14 07:08:05;;;;;;;1.60;1.10;;;11.80;98.20;;;;;;5017917;28;20565;-83
2023/11/14 07:10:32;;;;;;;1.60;1.10;;;11.80;98.20;;;;;;5011331;28;20519;-82
2023/11/14 07:12:59;;;;;;;1.60;1.03;;;11.90;98.20;;;;;;5017507;28;20487;-81
2023/11/14 07:15:27;;;;;;;1.60;1.00;;;11.90;98.20;;;;;;5009753;28;20466;-80
2023/11/14 07:17:54;;;;;;;1.60;1.10;;;11.90;98.20;;;;;;5013290;28;20486;-81
2023/11/14 07:20:23;;;;;;;1.60;1.10;;;11.90;98.20;;;;;;5008762;28;20491;-81
2023/11/14 07:22:51;;;;;;;1.70;1.53;;;11.90;98.20;;;;;;5029612;28;20576;-80
2023/11/14 07:25:18;;;;;;;1.60;1.10;;;12.00;98.20;;;;;;5010051;28;20888;-81
2023/11/14 07:27:47;;;;;;;1.60;1.10;;;12.00;98.20;;;;;;5013721;28;20487;-82
2023/11/14 07:30:14;;;;;;;1.60;1.00;;;12.00;98.20;;;;;;5010483;28;20993;-82
2023/11/14 07:32:41;;;;;;;1.60;1.13;;;12.00;98.20;;;;;;5028786;28;20967;-82
2023/11/14 07:35:10;;;;;;;1.60;1.00;;;12.10;98.20;;;;;;5011926;28;20462;-80
2023/11/14 07:37:38;;;;;;;1.57;1.00;;;12.10;98.20;;;;;;5014253;28;20479;-82
2023/11/14 07:40:06;;;;;;;1.50;1.00;;;12.10;98.20;;;;;;5009414;28;20500;-81
2023/11/14 07:42:33;;;;;;;1.60;1.10;;;12.10;98.20;;;;;;5027483;28;20540;-83
2023/11/14 07:45:00;;;;;;;1.60;1.20;;;12.10;98.20;;;;;;5013520;28;20543;-81
2023/11/14 07:47:27;;;;;;;1.60;1.10;;;12.10;98.20;;;;;;5025251;28;20521;-83
2023/11/14 07:49:54;;;;;;;1.50;1.00;;;12.10;98.20;;;;;;5018031;28;20808;-82
2023/11/14 07:52:21;;;;;;;1.60;1.10;;;12.10;98.20;;;;;;5014197;28;20479;-81
2023/11/14 07:54:53;;;;;;;1.60;1.10;;;12.20;98.20;;;;;;5015983;28;20976;-80
2023/11/14 07:57:19;;;;;;;1.60;1.10;;;12.20;98.20;;;;;;5014502;28;20562;-82
2023/11/14 07:59:46;;;;;;;1.60;1.10;;;12.20;98.20;;;;;;5015674;28;20624;-80
2023/11/14 08:02:13;;;;;;;1.60;1.13;;;12.30;98.20;;;;;;5017315;28;20867;-83
2023/11/14 08:04:40;;;;;;;1.60;1.10;;;12.30;98.20;;;;;;5015880;28;20490;-82
2023/11/14 08:07:09;;;;;;;4.07;3.77;;;12.40;98.20;;;;;;5020439;28;20482;-82
2023/11/14 08:09:36;;;;;;;1.60;1.00;;;12.50;98.20;;;;;;5020996;28;20471;-83
2023/11/14 08:12:05;;;;;;;1.60;1.10;;;12.50;98.20;;;;;;5019765;28;21254;-83
2023/11/14 08:14:32;;;;;;;1.60;1.10;;;12.60;98.20;;;;;;5019668;28;20475;-82
2023/11/14 08:16:59;;;;;;;1.60;1.00;;;12.60;98.20;;;;;;5009864;28;20502;-84
2023/11/14 08:19:26;;;;;;;1.60;1.10;;;12.60;98.20;;;;;;5016089;28;20849;-84
2023/11/14 08:21:52;;;;;;;1.60;1.00;;;12.70;98.20;;;;;;5006588;28;20475;-81
2023/11/14 08:24:19;;;;;;;1.60;1.10;;;12.70;98.20;;;;;;5015480;28;20504;-82
2023/11/14 08:26:46;;;;;;;1.60;1.10;;;12.70;98.20;;;;;;5004730;28;20990;-80
2023/11/14 08:29:14;;;;;;;1.97;1.77;;;12.80;98.20;;;;;;5014554;28;21027;-81
2023/11/14 08:31:42;;;;;;;1.60;1.10;;;12.80;98.20;;;;;;5010631;28;20867;-81
2023/11/14 08:34:08;;;;;;;1.60;1.10;;;12.90;98.20;;;;;;5023964;28;20468;-81
2023/11/14 08:36:35;;;;;;;1.60;1.10;;;12.90;98.20;;;;;;5014254;28;21009;-81
2023/11/14 08:39:02;;;;;;;1.60;1.00;;;12.90;98.20;;;;;;5028763;28;20559;-83
2023/11/14 08:41:29;;;;;;;1.60;1.20;;;13.00;98.20;;;;;;5011718;28;20549;-82
2023/11/14 08:43:57;;;;;;;1.60;1.03;;;13.00;98.20;;;;;;5032300;28;20460;-80
2023/11/14 08:46:25;;;;;;;1.60;1.13;;;13.00;98.20;;;;;;5009837;28;20474;-80
2023/11/14 08:48:52;;;;;;;1.60;1.10;;;13.00;98.20;;;;;;5033306;28;20510;-82
2023/11/14 08:51:20;;;;;;;1.60;1.10;;;13.00;98.20;;;;;;5008483;28;20582;-81
2023/11/14 08:53:47;;;;;;;1.60;1.10;;;13.00;98.20;;;;;;5031054;28;21151;-82
2023/11/14 08:56:13;;;;;;;1.60;1.00;;;13.00;98.20;;;;;;5003998;28;20502;-82
2023/11/14 08:58:40;;;;;;;1.60;1.10;;;13.10;98.20;;;;;;5024309;28;20623;-82
2023/11/14 09:01:07;;;;;;;1.60;1.03;;;13.10;98.20;;;;;;5004622;28;20484;-81
2023/11/14 09:03:35;;;;;;;1.60;1.00;;;13.10;98.20;;;;;;5023282;28;20495;-81
2023/11/14 09:06:02;;;;;;;1.60;1.00;;;13.20;98.20;;;;;;5006493;28;20470;-81
2023/11/14 09:08:29;;;;;;;1.60;1.10;;;13.30;98.20;;;;;;5039421;28;20475;-82
2023/11/14 09:10:56;;;;;;;1.60;1.20;;;13.30;98.20;;;;;;5001923;28;20472;-82
2023/11/14 09:13:24;;;;;;;1.60;1.10;;;13.30;98.20;;;;;;5027302;28;20484;-81
2023/11/14 09:15:50;;;;;;;1.60;1.10;;;13.40;98.20;;;;;;5002141;28;20470;-82
2023/11/14 09:18:18;;;;;;;1.60;1.00;;;13.40;98.20;;;;;;5027518;28;20476;-81
2023/11/14 09:20:46;;;;;;;1.60;1.10;;;13.30;98.20;;;;;;5010176;28;20872;-80
2023/11/14 09:23:12;;;;;;;1.60;1.10;;;13.30;98.20;;;;;;5018005;28;20484;-81
2023/11/14 09:25:40;;;;;;;1.60;1.00;;;13.30;98.20;;;;;;5010013;28;20464;-81
2023/11/14 09:28:07;;;;;;;2.23;1.50;;;13.30;98.20;;;;;;5015744;28;20493;-80
2023/11/14 09:30:34;;;;;;;1.60;1.10;;;13.30;98.20;;;;;;5011796;28;20451;-79
2023/11/14 09:33:01;;;;;;;1.60;1.10;;;13.20;98.20;;;;;;5029813;28;20504;-80
2023/11/14 09:35:28;;;;;;;1.57;1.00;;;13.20;98.20;;;;;;5011960;28;20486;-80
2023/11/14 09:37:56;;;;;;;1.60;1.00;;;13.20;98.20;;;;;;5031420;28;21054;-80
2023/11/14 09:40:25;;;;;;;2.03;1.70;;;13.20;98.20;;;;;;5009937;28;20474;-80
2023/11/14 09:42:53;;;;;;;1.60;1.00;;;13.20;98.20;;;;;;5031522;28;20470;-80
2023/11/14 09:45:20;;;;;;;1.60;1.10;;;13.10;98.20;;;;;;5011435;28;20466;-80
2023/11/14 09:47:49;;;;;;;1.60;1.00;;;13.10;98.20;;;;;;5031804;28;20485;-81
2023/11/14 09:50:17;;;;;;;1.60;1.00;;;13.10;98.20;;;;;;5012543;28;20456;-82
2023/11/14 09:52:44;;;;;;;1.57;1.00;;;13.10;98.20;;;;;;5019397;28;20479;-81
2023/11/14 09:55:13;;;;;;;1.60;1.13;;;13.10;98.20;;;;;;5014781;28;20972;-81
2023/11/14 09:57:40;;;;;;;1.60;1.10;;;13.10;98.20;;;;;;5016110;28;20485;-81
2023/11/14 10:00:11;;;;;;;2.23;1.37;;;13.20;98.20;;;;;;5015106;28;20459;-80
2023/11/14 10:02:39;;;;;;;1.53;1.00;;;13.20;98.20;;;;;;5028901;28;20485;-81
2023/11/14 10:05:08;;;;;;;1.60;1.00;;;13.30;98.20;;;;;;5015722;28;20864;-82
2023/11/14 10:07:36;;;;;;;1.60;1.00;;;13.30;98.20;;;;;;5031839;28;20512;-80
2023/11/14 10:10:03;;;;;;;1.60;1.07;;;13.30;98.20;;;;;;5018904;28;20460;-80
2023/11/14 10:12:35;;;;;;;1.60;1.10;;;13.30;98.20;;;;;;5017485;28;20558;-81
2023/11/14 10:15:03;;;;;;;1.60;1.00;;;13.30;98.20;;;;;;5015263;28;20946;-83
2023/11/14 10:17:40;;;;;;;1.60;1.00;;;13.40;98.20;;;;;;5016224;28;20511;-80
2023/11/14 10:20:08;;;;;;;1.60;1.10;;;13.40;98.20;;;;;;5017121;28;20517;-80
2023/11/14 10:22:35;;;;;;;1.60;1.10;;;13.40;98.20;;;;;;5014783;28;20466;-81
2023/11/14 10:25:03;;;;;;;1.60;1.10;;;13.40;98.20;;;;;;5012389;28;20550;-81
2023/11/14 10:27:33;;;;;;;1.57;1.00;;;13.50;98.20;;;;;;5027455;28;20601;-83
2023/11/14 10:30:01;;;;;;;1.60;1.00;;;13.50;98.20;;;;;;5019037;28;20486;-81
2023/11/14 10:32:28;;;;;;;1.60;1.00;;;13.50;98.20;;;;;;5017260;28;20557;-81
2023/11/14 10:34:55;;;;;;;1.60;1.00;;;13.60;98.20;;;;;;5013118;28;20467;-81
2023/11/14 10:37:32;;;;;;;1.60;1.10;;;13.60;98.20;;;;;;5029277;28;20540;-80
2023/11/14 10:40:02;;;;;;;1.57;1.00;;;13.60;98.20;;;;;;5018738;28;20467;-81
2023/11/14 10:42:29;;;;;;;1.60;1.10;;;13.50;98.20;;;;;;5013711;28;20495;-80
2023/11/14 10:45:01;;;;;;;1.60;1.10;;;13.50;98.20;;;;;;5014191;28;20468;-80
2023/11/14 10:47:38;;;;;;;1.60;1.00;;;13.50;98.20;;;;;;5028980;28;20500;-79
2023/11/14 10:50:07;;;;;;;1.60;1.00;;;13.50;98.20;;;;;;5014319;28;20463;-83
2023/11/14 10:52:36;;;;;;;1.60;1.00;;;13.40;98.20;;;;;;5016111;28;20479;-81
2023/11/14 10:55:05;;;;;;;1.60;1.00;;;13.40;98.20;;;;;;4994467;28;20956;-82
2023/11/14 10:57:33;;;;;;;1.53;1.00;;;13.30;98.20;;;;;;5015671;28;20479;-78
2023/11/14 11:00:08;;;;;;;1.60;1.00;;;13.30;98.20;;;;;;4998925;28;20476;-78
2023/11/14 11:02:37;;;;;;;1.77;1.53;;;13.20;98.20;;;;;;5029783;28;20657;-80
2023/11/14 11:05:05;;;;;;;1.60;1.00;;;13.10;98.20;;;;;;5018490;28;20934;-81
2023/11/14 11:07:32;;;;;;;1.60;1.00;;;13.10;98.20;;;;;;5018816;28;20478;-80
2023/11/14 11:09:59;;;;;;;1.60;1.40;;;13.00;98.20;;;;;;5020573;28;20489;-80
2023/11/14 11:12:28;;;;;;;1.57;1.00;;;13.00;98.20;;;;;;5017832;28;20498;-81
2023/11/14 11:14:56;;;;;;;1.60;1.00;;;13.00;98.20;;;;;;5019946;28;20464;-81
2023/11/14 11:17:41;;;;;;;1.60;1.20;;;12.90;98.20;;;;;;5012875;28;20562;-82
2023/11/14 11:20:10;;;;;;;1.60;1.13;;;13.00;98.20;;;;;;5011610;28;20566;-81
2023/11/14 11:23:08;;;;;;;1.60;1.10;;;13.00;98.20;;;;;;5026175;28;20478;-81
2023/11/14 11:25:35;;;;;;;1.60;1.00;;;13.00;98.20;;;;;;5006117;28;20990;-80
2023/11/14 11:28:31;;;;;;;1.57;1.00;;;13.00;98.20;;;;;;5027571;28;20832;-81
2023/11/14 11:31:07;;;;;;;1.60;1.10;;;13.00;98.20;;;;;;4998065;28;20464;-81
2023/11/14 11:33:37;;;;;;;1.60;1.20;;;13.00;98.20;;;;;;5003397;28;20567;-80
2023/11/14 11:36:28;;;;;;;1.60;1.00;;;13.10;98.20;;;;;;4986341;28;20763;-80
2023/11/14 11:38:57;;;;;;;1.60;1.20;;;13.10;98.20;;;;;;5015955;28;20780;-81
2023/11/14 11:41:25;;;;;;;1.60;1.07;;;13.10;98.20;;;;;;5006216;28;20518;-80
2023/11/14 11:44:03;;;;;;;1.60;1.10;;;13.10;98.20;;;;;;5026932;28;20736;-80
2023/11/14 11:46:43;;;;;;;1.60;1.10;;;13.10;98.20;;;;;;5011953;28;20482;-81
2023/11/14 11:49:32;;;;;;;1.60;1.00;;;13.10;98.20;;;;;;5016996;28;20488;-81
2023/11/14 11:52:17;;;;;;;1.60;1.10;;;13.00;98.20;;;;;;5007522;28;20511;-80
2023/11/14 11:54:48;;;;;;;1.60;1.10;;;13.00;98.20;;;;;;5012096;28;20492;-81
2023/11/14 11:57:21;;;;;;;1.60;1.00;;;13.00;98.20;;;;;;4999915;28;20837;-81
2023/11/14 12:00:21;;;;;;;1.60;1.00;;;13.00;98.20;;;;;;4999663;28;20499;-78
2023/11/14 12:02:49;;;;;;;1.83;1.47;;;12.90;98.20;;;;;;5018484;28;20536;-78
2023/11/14 12:05:18;;;;;;;1.60;1.10;;;12.90;98.20;;;;;;5016638;28;20455;-80
2023/11/14 12:07:47;;;;;;;1.60;1.00;;;12.80;98.20;;;;;;5015606;28;21033;-78
2023/11/14 12:10:18;;;;;;;1.60;1.00;;;12.70;98.20;;;;;;5008921;28;20456;-78
2023/11/14 12:12:48;;;;;;;1.60;1.00;;;12.70;98.20;;;;;;5026321;28;20561;-80
2023/11/14 12:15:20;;;;;;;1.60;1.10;;;12.70;98.20;;;;;;5006016;28;20969;-80
2023/11/14 12:17:51;;;;;;;1.53;1.00;;;12.70;98.20;;;;;;5000949;28;20475;-81
2023/11/14 12:20:20;;;;;;;1.60;1.00;;;12.80;98.20;;;;;;4984182;28;20461;-81
2023/11/14 12:22:49;;;;;;;1.60;1.00;;;12.90;98.20;;;;;;5008716;28;20475;-81
2023/11/14 12:25:17;;;;;;;1.60;1.00;;;12.90;98.20;;;;;;5008853;28;20455;-81
2023/11/14 12:27:49;;;;;;;1.57;1.00;;;13.00;98.20;;;;;;5024177;28;20482;-80
2023/11/14 12:30:17;;;;;;;1.60;1.20;;;13.10;98.20;;;;;;5007484;28;20494;-81
2023/11/14 12:32:43;;;;;;;1.53;1.00;;;13.10;98.20;;;;;;5028684;28;20974;-81
2023/11/14 12:35:10;;;;;;;1.60;1.10;;;13.10;98.20;;;;;;5008660;28;21042;-80
2023/11/14 12:37:38;;;;;;;1.60;1.10;;;13.10;98.20;;;;;;5029149;28;20561;-81
2023/11/14 12:40:09;;;;;;;1.60;1.00;;;13.00;98.20;;;;;;5013416;28;20460;-81
2023/11/14 12:42:36;;;;;;;1.60;1.00;;;13.00;98.20;;;;;;5027923;28;20537;-78
2023/11/14 12:45:07;;;;;;;1.57;1.00;;;12.90;98.20;;;;;;5014371;28;20510;-78
2023/11/14 12:47:35;;;;;;;1.53;1.00;;;12.90;98.20;;;;;;5029295;28;20573;-78
2023/11/14 12:50:02;;;;;;;1.60;1.10;;;12.80;98.20;;;;;;5014214;28;20838;-77
2023/11/14 12:52:30;;;;;;;1.60;1.00;;;12.70;98.20;;;;;;5000885;28;20515;-75
2023/11/14 12:55:00;;;;;;;1.60;1.00;;;12.70;98.20;;;;;;4996984;28;20461;-77
2023/11/14 12:57:27;;;;;;;1.60;1.10;;;12.60;98.20;;;;;;4997181;28;20888;-76
2023/11/14 12:59:55;;;;;;;1.60;1.00;;;12.60;98.20;;;;;;4996372;28;20459;-75